createdAt,value
2023-10-11T00:00:47.418Z,15.32
2023-10-11T00:03:19.410Z,12.45
2023-10-11T00:05:49.546Z,13.95
2023-10-11T00:08:20.087Z,14.65
2023-10-11T00:10:51.222Z,12.23
2023-10-11T00:13:20.053Z,11.52
2023-10-11T00:15:51.580Z,13.20
2023-10-11T00:18:20.343Z,12.43
2023-10-11T00:20:51.849Z,20.77
2023-10-11T00:23:23.794Z,15.63
2023-10-11T00:25:53.223Z,13.18
2023-10-11T00:28:24.853Z,14.02
2023-10-11T00:30:57.104Z,16.40
2023-10-11T00:33:37.572Z,14.50
2023-10-11T00:36:06.338Z,12.30
2023-10-11T00:38:44.478Z,14.77
2023-10-11T00:41:18.780Z,16.35
2023-10-11T00:43:51.206Z,13.10
2023-10-11T00:46:23.713Z,14.70
2023-10-11T00:48:56.624Z,12.13
2023-10-11T00:51:28.315Z,11.80
2023-10-11T00:53:57.261Z,12.18
2023-10-11T00:56:30.285Z,12.48
2023-10-11T00:58:58.332Z,16.45
2023-10-11T01:01:28.019Z,16.63
2023-10-11T01:03:56.784Z,16.50
2023-10-11T01:06:26.982Z,11.95
2023-10-11T01:08:55.284Z,15.68
2023-10-11T01:11:24.046Z,10.85
2023-10-11T01:13:53.139Z,15.15
2023-10-11T01:16:25.613Z,16.42
2023-10-11T01:18:55.071Z,16.15
2023-10-11T01:21:24.328Z,17.02
2023-10-11T01:23:52.131Z,13.07
2023-10-11T01:26:22.739Z,12.95
2023-10-11T01:28:52.466Z,15.65
2023-10-11T01:31:20.626Z,15.48
2023-10-11T01:33:50.615Z,16.02
2023-10-11T01:36:22.732Z,13.25
2023-10-11T01:38:52.322Z,12.80
2023-10-11T01:41:22.677Z,15.45
2023-10-11T01:43:51.963Z,14.98
2023-10-11T01:46:26.525Z,16.30
2023-10-11T01:48:55.982Z,15.52
2023-10-11T01:51:27.446Z,24.88
2023-10-11T01:53:57.883Z,15.90
2023-10-11T01:56:27.419Z,14.80
2023-10-11T01:58:58.143Z,14.23
2023-10-11T02:01:28.326Z,20.48
2023-10-11T02:04:00.833Z,21.45
2023-10-11T02:06:33.600Z,19.48
2023-10-11T02:09:03.901Z,18.63
2023-10-11T02:11:31.708Z,16.08
2023-10-11T02:14:00.486Z,13.93
2023-10-11T02:16:31.964Z,14.00
2023-10-11T02:19:01.212Z,15.40
2023-10-11T02:21:30.702Z,15.23
2023-10-11T02:24:00.155Z,15.10
2023-10-11T02:26:31.211Z,13.20
2023-10-11T02:29:01.727Z,15.77
2023-10-11T02:31:33.353Z,14.32
2023-10-11T02:34:13.981Z,12.70
2023-10-11T02:36:44.184Z,16.40
2023-10-11T02:39:19.663Z,16.08
2023-10-11T02:41:51.980Z,15.65
2023-10-11T02:44:24.270Z,14.10
2023-10-11T02:46:52.554Z,17.65
2023-10-11T02:49:24.565Z,19.35
2023-10-11T02:51:57.491Z,20.35
2023-10-11T02:54:34.943Z,15.68
2023-10-11T02:57:07.729Z,12.40
2023-10-11T02:59:38.254Z,15.93
2023-10-11T03:03:11.574Z,16.67
2023-10-11T03:05:39.347Z,13.73
2023-10-11T03:08:15.911Z,14.80
2023-10-11T03:10:46.891Z,17.40
2023-10-11T03:13:24.909Z,18.17
2023-10-11T03:15:56.007Z,16.27
2023-10-11T03:18:26.416Z,18.55
2023-10-11T03:21:09.893Z,14.80
2023-10-11T03:23:44.512Z,16.25
2023-10-11T03:26:18.073Z,21.48
2023-10-11T03:28:58.062Z,15.30
2023-10-11T03:31:28.880Z,17.10
2023-10-11T03:33:57.578Z,17.45
2023-10-11T03:36:32.313Z,15.85
2023-10-11T03:39:10.122Z,15.10
2023-10-11T03:41:45.970Z,15.95
2023-10-11T03:44:18.670Z,17.85
2023-10-11T03:46:48.643Z,14.68
2023-10-11T03:49:37.857Z,16.05
2023-10-11T03:52:06.345Z,14.23
2023-10-11T03:54:37.964Z,18.13
2023-10-11T03:57:06.942Z,13.75
2023-10-11T03:59:39.868Z,18.75
2023-10-11T04:02:11.515Z,19.67
2023-10-11T04:04:41.449Z,15.35
2023-10-11T04:07:13.754Z,18.00
2023-10-11T04:09:45.637Z,19.95
2023-10-11T04:12:14.264Z,16.73
2023-10-11T04:14:45.719Z,17.70
2023-10-11T04:17:27.543Z,18.48
2023-10-11T04:20:01.480Z,17.85
2023-10-11T04:22:32.567Z,15.15
2023-10-11T04:25:08.176Z,15.63
2023-10-11T04:27:49.230Z,20.40
2023-10-11T04:30:25.368Z,15.75
2023-10-11T04:32:57.396Z,14.52
2023-10-11T04:35:27.122Z,17.77
2023-10-11T04:38:02.618Z,14.52
2023-10-11T04:40:42.227Z,14.45
2023-10-11T04:43:21.681Z,16.08
2023-10-11T04:45:56.278Z,15.13
2023-10-11T04:48:35.173Z,16.60
2023-10-11T04:51:22.810Z,19.17
2023-10-11T04:53:58.222Z,18.60
2023-10-11T04:56:45.207Z,19.88
2023-10-11T04:59:19.049Z,18.42
2023-10-11T05:02:00.067Z,19.00
2023-10-11T05:04:33.971Z,20.77
2023-10-11T05:07:09.007Z,22.88
2023-10-11T05:09:41.274Z,23.58
2023-10-11T05:12:20.378Z,14.93
2023-10-11T05:15:02.925Z,15.55
2023-10-11T05:17:43.019Z,20.20
2023-10-11T05:20:46.226Z,19.00
2023-10-11T05:23:15.086Z,15.18
2023-10-11T05:25:57.656Z,16.98
2023-10-11T05:28:28.322Z,17.95
2023-10-11T05:31:23.613Z,14.80
2023-10-11T05:34:30.617Z,19.33
2023-10-11T05:37:15.714Z,17.27
2023-10-11T05:40:01.323Z,15.70
2023-10-11T05:42:46.464Z,20.80
2023-10-11T05:45:32.075Z,22.10
2023-10-11T05:48:19.473Z,19.33
2023-10-11T05:50:56.905Z,21.00
2023-10-11T05:53:26.976Z,14.95
2023-10-11T05:55:55.697Z,18.80
2023-10-11T05:58:23.971Z,18.15
2023-10-11T06:00:54.678Z,17.88
2023-10-11T06:03:26.252Z,18.67
2023-10-11T06:05:56.163Z,18.13
2023-10-11T06:08:25.669Z,17.98
2023-10-11T06:10:57.442Z,15.40
2023-10-11T06:13:25.256Z,19.85
2023-10-11T06:16:01.247Z,18.27
2023-10-11T06:18:44.840Z,19.83
2023-10-11T06:21:32.120Z,19.23
2023-10-11T06:24:01.073Z,17.90
2023-10-11T06:26:51.585Z,16.73
2023-10-11T06:29:24.110Z,18.55
2023-10-11T06:32:05.218Z,18.58
2023-10-11T06:34:46.432Z,19.98
2023-10-11T06:37:18.339Z,16.67
2023-10-11T06:40:04.061Z,17.77
2023-10-11T06:42:33.254Z,16.00
2023-10-11T06:45:04.615Z,19.52
2023-10-11T06:47:35.323Z,20.25
2023-10-11T06:50:12.975Z,19.23
2023-10-11T06:52:45.797Z,21.20
2023-10-11T06:55:19.620Z,17.85
2023-10-11T06:57:52.426Z,20.23
2023-10-11T07:00:26.299Z,17.52
2023-10-11T07:03:06.907Z,18.45
2023-10-11T07:05:41.743Z,17.00
2023-10-11T07:08:12.032Z,22.05
2023-10-11T07:10:46.560Z,19.42
2023-10-11T07:13:15.522Z,17.63
2023-10-11T07:15:45.148Z,15.75
2023-10-11T07:18:22.509Z,16.27
2023-10-11T07:20:59.093Z,17.02
2023-10-11T07:23:36.518Z,11.98
2023-10-11T07:26:25.129Z,14.43
2023-10-11T07:28:53.543Z,18.73
2023-10-11T07:31:22.494Z,16.60
2023-10-11T07:33:56.456Z,17.25
2023-10-11T07:36:26.448Z,20.73
2023-10-11T07:38:57.729Z,16.58
2023-10-11T07:41:29.677Z,18.63
2023-10-11T07:43:57.796Z,17.63
2023-10-11T07:46:26.320Z,17.48
2023-10-11T07:49:02.444Z,19.52
2023-10-11T07:51:31.380Z,18.88
2023-10-11T07:54:04.062Z,20.33
2023-10-11T07:56:37.090Z,36.50
2023-10-11T07:59:10.067Z,22.15
2023-10-11T08:01:44.741Z,22.05
2023-10-11T08:04:14.094Z,19.85
2023-10-11T08:06:42.433Z,15.63
2023-10-11T08:09:20.437Z,26.08
2023-10-11T08:11:54.282Z,17.90
2023-10-11T08:14:23.969Z,18.08
2023-10-11T08:16:52.503Z,18.50
2023-10-11T08:19:21.251Z,15.48
2023-10-11T08:21:55.849Z,14.52
2023-10-11T08:24:29.057Z,17.48
2023-10-11T08:27:06.991Z,13.52
2023-10-11T08:29:39.462Z,16.77
2023-10-11T08:32:14.186Z,15.90
2023-10-11T08:34:47.478Z,17.83
2023-10-11T08:37:15.917Z,12.27
2023-10-11T08:39:45.619Z,15.48
2023-10-11T08:42:16.020Z,13.60
2023-10-11T08:44:46.730Z,13.60
2023-10-11T08:47:20.464Z,13.88
2023-10-11T08:49:50.808Z,18.67
2023-10-11T08:52:23.694Z,11.25
2023-10-11T08:54:53.616Z,13.88
2023-10-11T08:57:24.784Z,20.95
2023-10-11T08:59:57.759Z,12.60
2023-10-11T09:02:28.083Z,20.05
2023-10-11T09:05:07.887Z,16.73
2023-10-11T09:07:39.695Z,14.52
2023-10-11T09:10:27.109Z,13.40
2023-10-11T09:13:01.528Z,16.13
2023-10-11T09:15:42.418Z,19.08
2023-10-11T09:18:16.533Z,14.10
2023-10-11T09:20:51.116Z,11.38
2023-10-11T09:23:22.151Z,14.77
2023-10-11T09:26:00.664Z,13.07
2023-10-11T09:28:29.185Z,20.95
2023-10-11T09:31:12.956Z,15.95
2023-10-11T09:33:42.758Z,15.05
2023-10-11T09:36:13.423Z,10.90
2023-10-11T09:38:42.005Z,16.38
2023-10-11T09:41:12.385Z,15.15
2023-10-11T09:43:45.470Z,8.98
2023-10-11T09:46:14.463Z,13.57
2023-10-11T09:48:43.482Z,9.45
2023-10-11T09:51:15.270Z,15.00
2023-10-11T09:53:50.980Z,11.45
2023-10-11T09:56:38.546Z,17.42
2023-10-11T09:59:23.492Z,9.77
2023-10-11T10:02:06.911Z,11.25
2023-10-11T10:04:58.999Z,10.60
2023-10-11T10:07:34.072Z,10.35
2023-10-11T10:10:03.610Z,12.63
2023-10-11T10:12:36.835Z,11.88
2023-10-11T10:15:10.841Z,11.13
2023-10-11T10:17:39.929Z,17.45
2023-10-11T10:20:46.375Z,13.30
2023-10-11T10:23:41.514Z,11.70
2023-10-11T10:26:39.520Z,9.93
2023-10-11T10:29:14.817Z,17.10
2023-10-11T10:32:08.481Z,15.18
2023-10-11T10:34:36.861Z,12.65
2023-10-11T10:37:10.731Z,12.25
2023-10-11T10:40:19.650Z,11.90
2023-10-11T10:43:24.943Z,10.38
2023-10-11T10:46:00.668Z,12.48
2023-10-11T10:48:32.623Z,11.07
2023-10-11T10:51:26.977Z,13.20
2023-10-11T10:53:55.290Z,12.70
2023-10-11T10:56:23.716Z,10.98
2023-10-11T10:59:03.972Z,12.98
2023-10-11T11:01:35.460Z,16.17
2023-10-11T11:04:08.049Z,16.80
2023-10-11T11:06:38.488Z,16.38
2023-10-11T11:09:14.026Z,13.80
2023-10-11T11:11:41.941Z,9.52
2023-10-11T11:14:10.643Z,15.43
2023-10-11T11:16:40.724Z,16.20
2023-10-11T11:19:17.773Z,13.57
2023-10-11T11:22:12.378Z,14.00
2023-10-11T11:24:39.624Z,19.10
2023-10-11T11:27:17.206Z,11.23
2023-10-11T11:29:51.073Z,12.55
2023-10-11T11:32:38.713Z,12.82
2023-10-11T11:35:11.087Z,10.00
2023-10-11T11:37:40.716Z,16.92
2023-10-11T11:40:25.079Z,15.10
2023-10-11T11:42:53.176Z,13.15
2023-10-11T11:45:21.585Z,12.70
2023-10-11T11:48:01.409Z,13.45
2023-10-11T11:50:32.077Z,12.15
2023-10-11T11:52:59.363Z,10.40
2023-10-11T11:55:27.334Z,14.98
2023-10-11T11:57:54.689Z,14.43
2023-10-11T12:00:39.928Z,14.60
2023-10-11T12:03:10.130Z,15.65
2023-10-11T12:05:42.096Z,12.05
2023-10-11T12:08:19.452Z,10.95
2023-10-11T12:10:48.825Z,14.88
2023-10-11T12:13:24.098Z,14.07
2023-10-11T12:15:56.033Z,13.48
2023-10-11T12:18:33.924Z,8.43
2023-10-11T12:21:12.741Z,10.93
2023-10-11T12:23:48.369Z,8.38
2023-10-11T12:26:18.228Z,13.07
2023-10-11T12:28:48.364Z,12.60
2023-10-11T12:31:18.272Z,10.45
2023-10-11T12:33:48.969Z,10.02
2023-10-11T12:36:21.618Z,9.75
2023-10-11T12:38:50.423Z,12.02
2023-10-11T12:41:18.496Z,7.22
2023-10-11T12:43:47.282Z,13.73
2023-10-11T12:46:20.121Z,11.45
2023-10-11T12:48:56.307Z,14.73
2023-10-11T12:51:25.122Z,9.45
2023-10-11T12:53:56.238Z,9.98
2023-10-11T12:56:25.160Z,10.45
2023-10-11T12:58:55.108Z,9.75
2023-10-11T13:01:37.904Z,9.18
2023-10-11T13:04:15.415Z,9.35
2023-10-11T13:06:50.700Z,7.47
2023-10-11T13:09:22.661Z,11.18
2023-10-11T13:11:50.511Z,13.07
2023-10-11T13:14:20.763Z,11.43
2023-10-11T13:16:50.437Z,12.95
2023-10-11T13:19:20.514Z,13.05
2023-10-11T13:21:48.718Z,14.27
2023-10-11T13:24:23.133Z,10.05
2023-10-11T13:26:52.774Z,7.13
2023-10-11T13:29:21.178Z,11.00
2023-10-11T13:31:50.104Z,9.88
2023-10-11T13:34:20.147Z,13.38
2023-10-11T13:36:48.079Z,12.30
2023-10-11T13:39:27.695Z,11.70
2023-10-11T13:41:57.242Z,9.25
2023-10-11T13:44:27.360Z,9.68
2023-10-11T13:46:57.012Z,11.75
2023-10-11T13:49:28.316Z,9.27
2023-10-11T13:51:59.662Z,11.55
2023-10-11T13:54:43.438Z,7.68
2023-10-11T13:57:12.864Z,11.13
2023-10-11T13:59:46.808Z,12.50
2023-10-11T14:02:35.579Z,10.93
2023-10-11T14:05:16.147Z,9.85
2023-10-11T14:07:53.403Z,16.63
2023-10-11T14:10:28.020Z,10.27
2023-10-11T14:13:01.632Z,8.98
2023-10-11T14:15:30.903Z,13.77
2023-10-11T14:18:01.215Z,13.18
2023-10-11T14:20:31.665Z,12.55
2023-10-11T14:23:04.360Z,7.40
2023-10-11T14:25:32.103Z,15.45
2023-10-11T14:27:59.922Z,8.73
2023-10-11T14:30:27.778Z,8.80
2023-10-11T14:32:55.622Z,9.50
2023-10-11T14:35:25.699Z,12.68
2023-10-11T14:37:55.053Z,12.73
2023-10-11T14:40:25.764Z,10.38
2023-10-11T14:42:53.550Z,11.77
2023-10-11T14:45:23.051Z,10.70
2023-10-11T14:47:52.053Z,12.23
2023-10-11T14:50:24.681Z,14.07
2023-10-11T14:52:54.728Z,15.07
2023-10-11T14:55:22.570Z,11.63
2023-10-11T14:57:50.870Z,12.02
2023-10-11T15:00:19.438Z,14.27
2023-10-11T15:02:48.166Z,16.92
2023-10-11T15:05:17.394Z,11.55
2023-10-11T15:07:45.220Z,14.07
2023-10-11T15:10:15.286Z,9.98
2023-10-11T15:12:44.351Z,11.13
2023-10-11T15:15:12.979Z,14.85
2023-10-11T15:17:40.861Z,15.63
2023-10-11T15:20:09.922Z,8.55
2023-10-11T15:22:37.856Z,16.75
2023-10-11T15:25:06.629Z,14.10
2023-10-11T15:27:35.843Z,12.48
2023-10-11T15:30:08.056Z,11.10
2023-10-11T15:32:36.137Z,13.13
2023-10-11T15:35:06.032Z,12.68
2023-10-11T15:37:33.766Z,14.40
2023-10-11T15:40:02.031Z,12.80
2023-10-11T15:42:31.323Z,12.80
2023-10-11T15:45:00.692Z,12.38
2023-10-11T15:47:36.446Z,9.77
2023-10-11T15:50:05.331Z,15.43
2023-10-11T15:52:33.334Z,16.00
2023-10-11T15:55:01.701Z,12.57
2023-10-11T15:57:29.489Z,10.75
2023-10-11T15:59:57.320Z,9.65
2023-10-11T16:02:26.804Z,9.02
2023-10-11T16:04:56.636Z,12.45
2023-10-11T16:07:26.419Z,13.63
2023-10-11T16:09:54.245Z,16.42
2023-10-11T16:12:23.875Z,11.52
2023-10-11T16:14:52.877Z,14.70
2023-10-11T16:17:20.798Z,28.08
2023-10-11T16:19:50.708Z,19.05
2023-10-11T16:22:18.543Z,9.13
2023-10-11T16:24:46.278Z,28.95
2023-10-11T16:27:15.787Z,64.63
2023-10-11T16:29:43.629Z,24.73
2023-10-11T16:32:11.325Z,13.27
2023-10-11T16:34:40.719Z,14.73
2023-10-11T16:37:09.750Z,43.97
2023-10-11T16:39:38.754Z,34.28
2023-10-11T16:42:06.930Z,24.83
2023-10-11T16:44:36.567Z,45.45
2023-10-11T16:47:10.377Z,20.20
2023-10-11T16:49:39.132Z,79.90
2023-10-11T16:52:07.631Z,46.25
2023-10-11T16:54:38.418Z,26.50
2023-10-11T16:57:07.835Z,32.60
2023-10-11T16:59:52.862Z,34.42
2023-10-11T17:02:21.969Z,18.23
2023-10-11T17:04:50.967Z,11.43
2023-10-11T17:07:19.575Z,11.02
2023-10-11T17:09:49.416Z,14.13
2023-10-11T17:12:17.494Z,13.00
2023-10-11T17:14:45.533Z,14.30
2023-10-11T17:17:13.307Z,38.38
2023-10-11T17:19:41.274Z,68.00
2023-10-11T17:22:10.781Z,73.63
2023-10-11T17:24:41.677Z,105.55
2023-10-11T17:27:10.889Z,108.97
2023-10-11T17:29:39.388Z,85.72
2023-10-11T17:32:07.224Z,74.32
2023-10-11T17:34:35.503Z,85.28
2023-10-11T17:37:03.415Z,92.60
2023-10-11T17:39:31.308Z,77.80
2023-10-11T17:41:59.069Z,42.70
2023-10-11T17:44:28.150Z,47.03
2023-10-11T17:46:58.590Z,29.58
2023-10-11T17:49:26.706Z,23.73
2023-10-11T17:51:54.549Z,32.55
2023-10-11T17:54:22.693Z,17.88
2023-10-11T17:56:54.945Z,20.80
2023-10-11T17:59:22.710Z,25.27
2023-10-11T18:01:52.825Z,20.60
2023-10-11T18:04:21.468Z,17.25
2023-10-11T18:06:49.608Z,11.75
2023-10-11T18:09:18.067Z,14.35
2023-10-11T18:11:46.114Z,9.25
2023-10-11T18:14:14.552Z,13.27
2023-10-11T18:16:42.405Z,13.05
2023-10-11T18:19:14.972Z,10.82
2023-10-11T18:21:45.209Z,16.73
2023-10-11T18:24:16.161Z,9.93
2023-10-11T18:26:44.713Z,16.70
2023-10-11T18:29:13.182Z,12.73
2023-10-11T18:31:41.067Z,16.92
2023-10-11T18:34:09.244Z,18.33
2023-10-11T18:36:39.964Z,13.40
2023-10-11T18:39:08.860Z,16.33
2023-10-11T18:41:37.260Z,11.05
2023-10-11T18:44:06.258Z,12.88
2023-10-11T18:46:34.235Z,13.95
2023-10-11T18:49:02.372Z,14.07
2023-10-11T18:51:30.337Z,14.80
2023-10-11T18:53:59.660Z,8.77
2023-10-11T18:56:27.595Z,11.82
2023-10-11T18:58:56.329Z,13.13
2023-10-11T19:01:24.527Z,12.88
2023-10-11T19:03:52.793Z,17.92
2023-10-11T19:06:20.870Z,16.25
2023-10-11T19:08:49.674Z,10.82
2023-10-11T19:11:20.994Z,15.77
2023-10-11T19:13:49.678Z,13.82
2023-10-11T19:16:25.108Z,15.75
2023-10-11T19:18:54.716Z,14.20
2023-10-11T19:21:22.715Z,15.10
2023-10-11T19:23:50.913Z,15.27
2023-10-11T19:26:21.119Z,14.30
2023-10-11T19:28:49.483Z,16.40
2023-10-11T19:31:17.996Z,14.15
2023-10-11T19:33:46.081Z,18.45
2023-10-11T19:36:17.393Z,13.02
2023-10-11T19:38:46.296Z,16.52
2023-10-11T19:41:14.549Z,12.27
2023-10-11T19:43:45.386Z,12.23
2023-10-11T19:46:14.740Z,16.50
2023-10-11T19:48:43.484Z,10.02
2023-10-11T19:51:12.617Z,13.77
2023-10-11T19:53:41.649Z,11.55
2023-10-11T19:56:18.917Z,13.30
2023-10-11T19:58:49.108Z,12.02
2023-10-11T20:01:19.598Z,15.13
2023-10-11T20:03:53.399Z,14.65
2023-10-11T20:06:23.687Z,14.60
2023-10-11T20:08:53.271Z,13.00
2023-10-11T20:11:22.204Z,17.35
2023-10-11T20:13:54.284Z,19.90
2023-10-11T20:16:22.374Z,9.70
2023-10-11T20:18:51.195Z,11.77
2023-10-11T20:21:20.703Z,10.98
2023-10-11T20:23:50.042Z,10.90
2023-10-11T20:26:21.403Z,15.05
2023-10-11T20:28:52.866Z,15.70
2023-10-11T20:31:21.374Z,12.15
2023-10-11T20:33:50.995Z,16.65
2023-10-11T20:36:19.614Z,10.75
2023-10-11T20:38:49.030Z,11.70
2023-10-11T20:41:19.647Z,12.73
2023-10-11T20:43:48.467Z,15.40
2023-10-11T20:46:18.873Z,16.55
2023-10-11T20:48:46.769Z,10.63
2023-10-11T20:51:17.032Z,15.05
2023-10-11T20:53:46.200Z,11.88
2023-10-11T20:56:14.318Z,14.68
2023-10-11T20:58:56.955Z,13.05
2023-10-11T21:01:27.749Z,12.38
2023-10-11T21:03:57.543Z,11.55
2023-10-11T21:06:26.371Z,19.00
2023-10-11T21:08:54.236Z,16.67
2023-10-11T21:11:22.684Z,12.10
2023-10-11T21:13:50.698Z,12.93
2023-10-11T21:16:18.561Z,11.25
2023-10-11T21:18:47.841Z,8.98
2023-10-11T21:21:19.399Z,10.57
2023-10-11T21:23:47.786Z,15.82
2023-10-11T21:26:17.118Z,12.98
2023-10-11T21:28:53.526Z,10.68
2023-10-11T21:31:22.498Z,10.50
2023-10-11T21:33:52.099Z,11.68
2023-10-11T21:36:20.088Z,10.82
2023-10-11T21:38:48.412Z,14.75
2023-10-11T21:41:16.578Z,15.77
2023-10-11T21:43:45.053Z,14.27
2023-10-11T21:46:14.125Z,12.88
2023-10-11T21:48:42.951Z,12.95
2023-10-11T21:51:25.794Z,9.20
2023-10-11T21:53:55.305Z,12.32
2023-10-11T21:56:23.040Z,9.88
2023-10-11T21:58:50.984Z,13.52
2023-10-11T22:01:24.526Z,11.18
2023-10-11T22:03:53.301Z,11.57
2023-10-11T22:06:22.707Z,12.45
2023-10-11T22:08:49.818Z,9.00
2023-10-11T22:11:17.676Z,14.57
2023-10-11T22:13:46.687Z,9.43
2023-10-11T22:16:15.360Z,11.30
2023-10-11T22:18:43.852Z,9.60
2023-10-11T22:21:13.764Z,14.95
2023-10-11T22:23:45.247Z,14.77
2023-10-11T22:26:15.386Z,16.05
2023-10-11T22:28:45.194Z,10.85
2023-10-11T22:31:13.708Z,13.18
2023-10-11T22:33:44.330Z,14.50
2023-10-11T22:36:16.554Z,13.98
2023-10-11T22:38:47.174Z,12.30
2023-10-11T22:41:18.866Z,10.93
2023-10-11T22:43:47.383Z,7.88
2023-10-11T22:46:15.728Z,10.30
2023-10-11T22:48:46.166Z,10.48
2023-10-11T22:51:18.664Z,18.58
2023-10-11T22:56:21.365Z,9.32
2023-10-11T22:58:51.975Z,10.98
2023-10-11T23:01:20.884Z,10.10
2023-10-11T23:03:48.816Z,9.90
2023-10-11T23:06:17.202Z,11.60
2023-10-11T23:08:47.130Z,8.45
2023-10-11T23:11:19.982Z,10.32
2023-10-11T23:13:49.518Z,12.98
2023-10-11T23:16:19.036Z,12.88
2023-10-11T23:18:47.714Z,10.18
2023-10-11T23:21:21.822Z,10.88
2023-10-11T23:23:53.253Z,14.27
2023-10-11T23:26:27.167Z,10.18
2023-10-11T23:28:57.974Z,10.10
2023-10-11T23:31:27.593Z,13.52
2023-10-11T23:33:57.841Z,10.13
2023-10-11T23:36:36.010Z,10.48
2023-10-11T23:39:07.834Z,10.52
2023-10-11T23:41:46.682Z,13.43
2023-10-11T23:44:23.661Z,12.10
2023-10-11T23:46:59.690Z,10.88
2023-10-11T23:49:41.746Z,14.55
2023-10-11T23:52:15.065Z,10.70
2023-10-11T23:54:44.493Z,9.40
2023-10-11T23:57:23.081Z,9.10
2023-10-11T23:59:51.269Z,15.57
